createdAt,value
2018-03-06T00:01:40.404Z,75.50
2018-03-06T00:04:07.370Z,72.03
2018-03-06T00:06:33.500Z,76.13
2018-03-06T00:08:59.660Z,77.67
2018-03-06T00:11:25.807Z,79.27
2018-03-06T00:13:52.705Z,84.13
2018-03-06T00:16:18.975Z,78.40
2018-03-06T00:18:45.161Z,78.40
2018-03-06T00:21:11.372Z,87.37
2018-03-06T00:23:37.677Z,98.40
2018-03-06T00:26:03.866Z,87.10
2018-03-06T00:28:30.726Z,91.07
2018-03-06T00:30:57.641Z,96.60
2018-03-06T00:33:23.735Z,98.73
2018-03-06T00:35:50.704Z,103.97
2018-03-06T00:38:16.833Z,95.63
2018-03-06T00:40:43.036Z,97.47
2018-03-06T00:43:09.256Z,95.03
2018-03-06T00:45:35.457Z,90.30
2018-03-06T00:48:01.625Z,92.83
2018-03-06T00:50:27.762Z,98.30
2018-03-06T00:52:54.803Z,99.53
2018-03-06T00:55:20.920Z,95.03
2018-03-06T00:57:47.792Z,95.50
2018-03-06T01:00:13.972Z,94.07
2018-03-06T01:02:40.101Z,101.53
2018-03-06T01:05:06.230Z,93.37
2018-03-06T01:07:32.415Z,102.00
2018-03-06T01:09:58.536Z,91.33
2018-03-06T01:12:24.644Z,80.37
2018-03-06T01:14:50.829Z,82.47
2018-03-06T01:17:16.925Z,87.97
2018-03-06T01:19:43.047Z,81.47
2018-03-06T01:22:09.200Z,83.10
2018-03-06T01:24:35.300Z,87.50
2018-03-06T01:27:01.445Z,84.33
2018-03-06T01:29:27.750Z,91.50
2018-03-06T01:31:53.856Z,93.47
2018-03-06T01:34:20.017Z,91.43
2018-03-06T01:36:46.134Z,91.47
2018-03-06T01:39:12.265Z,99.43
2018-03-06T01:41:38.411Z,88.50
2018-03-06T01:44:04.531Z,86.73
2018-03-06T01:46:30.652Z,88.57
2018-03-06T01:48:56.752Z,81.73
2018-03-06T01:51:22.889Z,91.33
2018-03-06T01:53:49.046Z,91.00
2018-03-06T01:56:15.140Z,83.33
2018-03-06T01:58:41.660Z,82.97
2018-03-06T02:01:07.796Z,91.87
2018-03-06T02:03:34.673Z,93.83
2018-03-06T02:06:00.816Z,82.77
2018-03-06T02:08:26.930Z,83.20
2018-03-06T02:10:54.135Z,90.80
2018-03-06T02:13:20.292Z,88.37
2018-03-06T02:15:46.420Z,100.73
2018-03-06T02:18:12.593Z,84.43
2018-03-06T02:20:38.772Z,94.00
2018-03-06T02:23:04.928Z,128.83
2018-03-06T02:25:31.260Z,172.80
2018-03-06T02:27:57.370Z,188.87
2018-03-06T02:30:23.917Z,192.87
2018-03-06T02:32:50.386Z,210.00
2018-03-06T02:35:16.636Z,210.07
2018-03-06T02:37:43.638Z,197.27
2018-03-06T02:40:10.517Z,200.33
2018-03-06T02:42:38.308Z,181.63
2018-03-06T02:45:05.202Z,155.13
2018-03-06T02:47:31.329Z,113.90
2018-03-06T02:49:57.464Z,99.73
2018-03-06T02:52:23.660Z,95.73
2018-03-06T02:54:50.583Z,91.80
2018-03-06T02:57:16.680Z,89.00
2018-03-06T02:59:42.815Z,99.50
2018-03-06T03:02:08.963Z,89.67
2018-03-06T03:04:35.130Z,97.37
2018-03-06T03:07:01.392Z,90.17
2018-03-06T03:09:27.801Z,89.50
2018-03-06T03:11:53.945Z,95.73
2018-03-06T03:14:20.720Z,82.27
2018-03-06T03:16:46.810Z,89.70
2018-03-06T03:19:12.942Z,97.20
2018-03-06T03:21:39.993Z,88.67
2018-03-06T03:24:06.453Z,89.77
2018-03-06T03:26:32.564Z,96.27
2018-03-06T03:28:59.429Z,93.00
2018-03-06T03:31:26.515Z,88.53
2018-03-06T03:33:52.647Z,86.13
2018-03-06T03:36:18.776Z,86.20
2018-03-06T03:38:45.365Z,97.27
2018-03-06T03:41:11.522Z,95.27
2018-03-06T03:43:37.784Z,96.60
2018-03-06T03:46:03.962Z,87.70
2018-03-06T03:48:30.110Z,82.40
2018-03-06T03:50:59.051Z,97.23
2018-03-06T03:53:25.190Z,84.07
2018-03-06T03:55:51.683Z,80.80
2018-03-06T03:58:17.792Z,87.63
2018-03-06T04:00:47.658Z,101.33
2018-03-06T04:03:13.879Z,84.33
2018-03-06T04:05:40.756Z,92.33
2018-03-06T04:08:06.859Z,97.83
2018-03-06T04:10:33.761Z,103.17
2018-03-06T04:13:00.018Z,95.33
2018-03-06T04:15:26.147Z,91.73
2018-03-06T04:17:52.303Z,89.23
2018-03-06T04:20:18.667Z,92.17
2018-03-06T04:22:46.637Z,98.67
2018-03-06T04:25:19.822Z,92.47
2018-03-06T04:27:45.955Z,92.23
2018-03-06T04:30:15.820Z,91.80
2018-03-06T04:32:42.204Z,84.73
2018-03-06T04:35:09.490Z,97.30
2018-03-06T04:37:35.662Z,97.83
2018-03-06T04:40:01.857Z,95.30
2018-03-06T04:42:34.065Z,99.20
2018-03-06T04:45:00.988Z,105.17
2018-03-06T04:47:27.122Z,97.87
2018-03-06T04:49:53.268Z,99.33
2018-03-06T04:52:19.680Z,94.53
2018-03-06T04:54:45.953Z,98.70
2018-03-06T04:57:12.099Z,97.43
2018-03-06T04:59:38.313Z,91.13
2018-03-06T05:02:04.592Z,102.53
2018-03-06T05:04:30.770Z,99.70
2018-03-06T05:06:57.716Z,105.57
2018-03-06T05:09:23.948Z,97.20
2018-03-06T05:11:50.060Z,97.40
2018-03-06T05:14:16.195Z,93.83
2018-03-06T05:16:42.355Z,94.30
2018-03-06T05:19:08.483Z,100.60
2018-03-06T05:21:34.668Z,92.47
2018-03-06T05:24:01.520Z,105.60
2018-03-06T05:26:28.387Z,103.87
2018-03-06T05:29:02.158Z,94.10
2018-03-06T05:31:28.329Z,102.77
2018-03-06T05:33:55.233Z,96.00
2018-03-06T05:36:21.352Z,101.03
2018-03-06T05:38:47.484Z,94.70
2018-03-06T05:41:13.625Z,102.70
2018-03-06T05:43:39.748Z,105.17
2018-03-06T05:46:06.616Z,100.77
2018-03-06T05:48:32.772Z,99.03
2018-03-06T05:51:02.701Z,95.57
2018-03-06T05:53:28.781Z,108.10
2018-03-06T05:55:54.915Z,109.13
2018-03-06T05:58:21.031Z,97.43
2018-03-06T06:00:47.154Z,106.67
2018-03-06T06:03:13.306Z,99.17
2018-03-06T06:05:39.487Z,113.73
2018-03-06T06:08:05.651Z,97.27
2018-03-06T06:10:31.818Z,105.63
2018-03-06T06:12:57.955Z,105.97
2018-03-06T06:15:24.068Z,100.93
2018-03-06T06:17:50.943Z,95.73
2018-03-06T06:20:17.081Z,93.23
2018-03-06T06:22:43.211Z,90.97
2018-03-06T06:25:10.069Z,94.57
2018-03-06T06:27:36.955Z,100.27
2018-03-06T06:30:03.107Z,101.20
2018-03-06T06:32:29.233Z,100.93
2018-03-06T06:34:55.290Z,103.37
2018-03-06T06:37:21.410Z,101.40
2018-03-06T06:39:47.495Z,102.30
2018-03-06T06:42:14.323Z,105.93
2018-03-06T06:44:40.488Z,103.23
2018-03-06T06:47:07.675Z,95.43
2018-03-06T06:49:33.829Z,102.87
2018-03-06T06:51:59.961Z,111.53
2018-03-06T06:54:26.218Z,103.23
2018-03-06T06:56:52.346Z,101.53
2018-03-06T06:59:18.556Z,103.33
2018-03-06T07:01:45.409Z,99.93
2018-03-06T07:04:11.636Z,99.90
2018-03-06T07:06:37.740Z,101.30
2018-03-06T07:09:03.856Z,114.47
2018-03-06T07:11:30.012Z,95.57
2018-03-06T07:13:56.152Z,99.10
2018-03-06T07:16:22.348Z,100.87
2018-03-06T07:18:49.206Z,95.90
2018-03-06T07:21:15.610Z,96.30
2018-03-06T07:23:41.718Z,111.43
2018-03-06T07:26:07.846Z,110.87
2018-03-06T07:28:33.998Z,111.83
2018-03-06T07:31:00.144Z,93.77
2018-03-06T07:33:26.239Z,103.30
2018-03-06T07:35:53.106Z,92.83
2018-03-06T07:38:19.960Z,103.90
2018-03-06T07:40:46.777Z,95.43
2018-03-06T07:43:12.908Z,105.80
2018-03-06T07:45:39.032Z,98.17
2018-03-06T07:48:05.155Z,106.00
2018-03-06T07:50:31.893Z,97.90
2018-03-06T07:52:58.065Z,103.10
2018-03-06T07:55:24.174Z,103.43
2018-03-06T07:57:50.296Z,97.63
2018-03-06T08:00:17.155Z,93.37
2018-03-06T08:02:44.257Z,110.57
2018-03-06T08:05:10.412Z,104.40
2018-03-06T08:07:36.513Z,103.67
2018-03-06T08:10:02.617Z,115.13
2018-03-06T08:12:29.531Z,101.90
2018-03-06T08:14:56.531Z,94.73
2018-03-06T08:17:24.499Z,97.03
2018-03-06T08:19:52.416Z,91.83
2018-03-06T08:22:20.451Z,98.93
2018-03-06T08:24:49.020Z,100.57
2018-03-06T08:27:16.953Z,108.07
2018-03-06T08:29:44.861Z,105.83
2018-03-06T08:32:12.717Z,100.30
2018-03-06T08:34:40.606Z,106.90
2018-03-06T08:37:08.561Z,116.07
2018-03-06T08:39:36.450Z,109.30
2018-03-06T08:42:04.382Z,95.67
2018-03-06T08:44:32.295Z,93.97
2018-03-06T08:47:00.164Z,88.03
2018-03-06T08:49:28.036Z,88.27
2018-03-06T08:51:55.910Z,98.67
2018-03-06T08:54:23.798Z,111.27
2018-03-06T08:56:51.760Z,102.80
2018-03-06T08:59:19.633Z,86.50
2018-03-06T09:01:47.496Z,104.97
2018-03-06T09:04:15.365Z,92.70
2018-03-06T09:06:43.236Z,105.97
2018-03-06T09:09:11.626Z,96.20
2018-03-06T09:11:39.527Z,108.23
2018-03-06T09:14:07.380Z,96.73
2018-03-06T09:16:35.359Z,101.30
2018-03-06T09:19:03.235Z,79.37
2018-03-06T09:21:31.078Z,82.20
2018-03-06T09:23:58.930Z,91.13
2018-03-06T09:26:26.808Z,104.17
2018-03-06T09:28:54.749Z,90.40
2018-03-06T09:31:22.780Z,98.87
2018-03-06T09:33:50.747Z,100.87
2018-03-06T09:36:18.867Z,88.30
2018-03-06T09:38:46.927Z,103.70
2018-03-06T09:41:15.339Z,102.80
2018-03-06T09:43:43.566Z,104.83
2018-03-06T09:46:11.423Z,101.07
2018-03-06T09:48:39.300Z,95.13
2018-03-06T09:51:07.191Z,87.37
2018-03-06T09:53:35.335Z,96.60
2018-03-06T09:56:03.296Z,99.10
2018-03-06T09:58:31.440Z,98.73
2018-03-06T10:00:59.396Z,98.10
2018-03-06T10:03:27.315Z,100.97
2018-03-06T10:05:55.163Z,96.50
2018-03-06T10:08:23.137Z,103.40
2018-03-06T10:10:51.054Z,97.70
2018-03-06T10:13:18.983Z,99.10
2018-03-06T10:15:46.937Z,90.50
2018-03-06T10:18:14.799Z,95.63
2018-03-06T10:20:42.643Z,99.97
2018-03-06T10:23:11.361Z,106.17
2018-03-06T10:25:39.375Z,86.23
2018-03-06T10:28:07.282Z,98.70
2018-03-06T10:30:35.187Z,88.30
2018-03-06T10:33:03.112Z,87.60
2018-03-06T10:35:30.976Z,85.53
2018-03-06T10:37:59.053Z,89.33
2018-03-06T10:40:26.953Z,91.10
2018-03-06T10:42:54.818Z,93.37
2018-03-06T10:45:22.793Z,82.70
2018-03-06T10:47:50.677Z,90.60
2018-03-06T10:50:18.635Z,89.77
2018-03-06T10:52:46.510Z,95.67
2018-03-06T10:55:14.421Z,90.03
2018-03-06T10:57:42.280Z,98.33
2018-03-06T11:00:10.202Z,96.37
2018-03-06T11:02:42.018Z,87.23
2018-03-06T11:05:10.065Z,101.87
2018-03-06T11:07:38.016Z,99.23
2018-03-06T11:10:06.180Z,100.17
2018-03-06T11:12:34.261Z,89.87
2018-03-06T11:15:02.163Z,93.93
2018-03-06T11:17:30.051Z,96.57
2018-03-06T11:19:57.916Z,97.93
2018-03-06T11:22:25.867Z,97.23
2018-03-06T11:24:53.896Z,101.40
2018-03-06T11:27:21.882Z,101.83
2018-03-06T11:29:49.785Z,106.03
2018-03-06T11:32:17.656Z,99.93
2018-03-06T11:34:45.639Z,115.27
2018-03-06T11:37:13.469Z,98.10
2018-03-06T11:39:41.521Z,95.03
2018-03-06T11:42:09.512Z,94.13
2018-03-06T11:44:37.383Z,99.93
2018-03-06T11:47:05.448Z,99.83
2018-03-06T11:49:33.540Z,86.67
2018-03-06T11:52:01.407Z,99.73
2018-03-06T11:54:29.302Z,94.30
2018-03-06T11:56:57.168Z,106.07
2018-03-06T11:59:25.109Z,95.20
2018-03-06T12:01:53.212Z,91.70
2018-03-06T12:04:21.096Z,107.23
2018-03-06T12:06:49.855Z,109.03
2018-03-06T12:09:17.738Z,104.40
2018-03-06T12:11:45.848Z,96.20
2018-03-06T12:14:13.741Z,131.33
2018-03-06T12:16:41.645Z,96.33
2018-03-06T12:19:09.592Z,101.50
2018-03-06T12:21:37.431Z,96.07
2018-03-06T12:24:06.005Z,110.03
2018-03-06T12:26:34.059Z,96.17
2018-03-06T12:29:02.078Z,106.33
2018-03-06T12:31:30.026Z,108.47
2018-03-06T12:33:57.870Z,103.80
2018-03-06T12:36:25.734Z,98.33
2018-03-06T12:38:53.664Z,98.47
2018-03-06T12:41:21.581Z,104.00
2018-03-06T12:43:50.599Z,89.47
2018-03-06T12:46:19.572Z,100.63
2018-03-06T12:48:47.453Z,81.77
2018-03-06T12:51:15.332Z,93.47
2018-03-06T12:53:43.197Z,108.17
2018-03-06T12:56:11.155Z,105.10
2018-03-06T12:58:39.081Z,104.00
2018-03-06T13:01:07.919Z,111.70
2018-03-06T13:03:35.835Z,108.50
2018-03-06T13:06:03.956Z,108.93
2018-03-06T13:08:31.869Z,102.97
2018-03-06T13:10:59.775Z,108.17
2018-03-06T13:13:27.614Z,107.07
2018-03-06T13:15:55.525Z,104.10
2018-03-06T13:18:23.549Z,111.13
2018-03-06T13:20:51.442Z,117.30
2018-03-06T13:23:19.342Z,106.00
2018-03-06T13:25:47.208Z,110.67
2018-03-06T13:28:15.072Z,123.20
2018-03-06T13:30:43.603Z,113.87
2018-03-06T13:33:12.054Z,114.60
2018-03-06T13:35:39.896Z,114.07
2018-03-06T13:38:07.747Z,111.20
2018-03-06T13:40:35.645Z,112.93
2018-03-06T13:43:03.562Z,120.57
2018-03-06T13:45:31.448Z,119.60
2018-03-06T13:47:59.339Z,125.00
2018-03-06T13:50:27.189Z,111.13
2018-03-06T13:52:55.080Z,118.27
2018-03-06T13:55:22.958Z,123.83
2018-03-06T13:57:50.803Z,116.90
2018-03-06T14:00:18.647Z,128.87
2018-03-06T14:02:46.548Z,131.43
2018-03-06T14:05:14.403Z,143.27
2018-03-06T14:07:42.288Z,137.83
2018-03-06T14:10:10.201Z,146.87
2018-03-06T14:12:38.108Z,162.07
2018-03-06T14:15:05.960Z,156.63
2018-03-06T14:17:34.170Z,167.53
2018-03-06T14:20:02.091Z,168.93
2018-03-06T14:22:30.179Z,171.57
2018-03-06T14:24:58.204Z,168.40
2018-03-06T14:27:27.052Z,194.37
2018-03-06T14:29:54.968Z,190.57
2018-03-06T14:32:22.958Z,197.50
2018-03-06T14:34:53.640Z,201.30
2018-03-06T14:37:21.547Z,190.23
2018-03-06T14:39:49.469Z,198.73
2018-03-06T14:42:17.331Z,199.77
2018-03-06T14:44:45.228Z,208.60
2018-03-06T14:47:13.232Z,184.03
2018-03-06T14:49:41.116Z,192.53
2018-03-06T14:52:09.014Z,168.87
2018-03-06T14:54:36.889Z,179.37
2018-03-06T14:57:04.756Z,176.03
2018-03-06T14:59:32.776Z,178.37
2018-03-06T15:02:00.711Z,158.50
2018-03-06T15:04:28.543Z,151.23
2018-03-06T15:06:56.391Z,150.60
2018-03-06T15:09:24.360Z,154.63
2018-03-06T15:11:52.329Z,146.40
2018-03-06T15:14:20.223Z,153.70
2018-03-06T15:16:48.141Z,146.83
2018-03-06T15:19:16.017Z,143.63
2018-03-06T15:21:43.859Z,149.90
2018-03-06T15:24:11.739Z,146.63
2018-03-06T15:26:40.155Z,147.30
2018-03-06T15:29:08.408Z,148.00
2018-03-06T15:31:36.852Z,156.40
2018-03-06T15:34:05.292Z,163.83
2018-03-06T15:36:33.641Z,168.87
2018-03-06T15:39:01.581Z,168.10
2018-03-06T15:41:29.804Z,172.77
2018-03-06T15:43:57.675Z,179.40
2018-03-06T15:46:25.552Z,179.53
2018-03-06T15:48:53.379Z,181.00
2018-03-06T15:51:21.222Z,162.03
2018-03-06T15:53:49.370Z,179.47
2018-03-06T15:56:17.208Z,163.73
2018-03-06T15:58:45.039Z,193.27
2018-03-06T16:01:12.922Z,171.60
2018-03-06T16:03:40.807Z,188.93
2018-03-06T16:06:08.710Z,149.17
2018-03-06T16:08:36.790Z,150.07
2018-03-06T16:11:04.818Z,172.57
2018-03-06T16:13:32.884Z,172.20
2018-03-06T16:16:00.816Z,173.57
2018-03-06T16:18:28.779Z,179.57
2018-03-06T16:20:56.637Z,192.30
2018-03-06T16:23:24.575Z,195.70
2018-03-06T16:25:52.431Z,193.47
2018-03-06T16:28:20.285Z,205.27
2018-03-06T16:30:48.171Z,195.13
2018-03-06T16:33:16.046Z,195.67
2018-03-06T16:35:43.915Z,207.70
2018-03-06T16:38:11.870Z,217.17
2018-03-06T16:40:38.066Z,202.50
2018-03-06T16:43:04.261Z,233.07
2018-03-06T16:45:30.377Z,206.50
2018-03-06T16:47:56.485Z,233.57
2018-03-06T16:50:22.587Z,213.10
2018-03-06T16:52:48.722Z,218.90
2018-03-06T16:55:14.841Z,218.43
2018-03-06T16:57:40.972Z,228.57
2018-03-06T17:00:07.233Z,234.33
2018-03-06T17:02:33.479Z,264.37
2018-03-06T17:04:59.636Z,300.17
2018-03-06T17:07:25.791Z,264.47
2018-03-06T17:09:52.654Z,255.73
2018-03-06T17:12:18.945Z,304.93
2018-03-06T17:14:45.251Z,337.43
2018-03-06T17:17:11.401Z,327.50
2018-03-06T17:19:37.526Z,323.43
2018-03-06T17:22:05.264Z,301.37
2018-03-06T17:24:32.119Z,293.50
2018-03-06T17:26:58.237Z,287.93
2018-03-06T17:29:24.344Z,270.90
2018-03-06T17:31:50.462Z,283.40
2018-03-06T17:34:16.620Z,263.90
2018-03-06T17:36:42.712Z,265.07
2018-03-06T17:39:08.853Z,285.60
2018-03-06T17:44:33.516Z,269.17
2018-03-06T17:46:59.608Z,289.03
2018-03-06T17:49:25.757Z,296.43
2018-03-06T17:51:52.001Z,270.83
2018-03-06T17:54:18.133Z,255.40
2018-03-06T17:56:44.262Z,277.73
2018-03-06T17:59:10.373Z,293.47
2018-03-06T18:01:36.516Z,291.27
2018-03-06T18:04:02.872Z,287.50
2018-03-06T18:06:28.973Z,312.13
2018-03-06T18:08:56.151Z,291.83
2018-03-06T18:11:22.235Z,282.00
2018-03-06T18:13:49.114Z,300.40
2018-03-06T18:16:15.355Z,275.23
2018-03-06T18:18:41.472Z,283.10
2018-03-06T18:21:07.808Z,290.20
2018-03-06T18:23:34.930Z,311.93
2018-03-06T18:26:01.162Z,311.70
2018-03-06T18:28:27.276Z,298.63
2018-03-06T18:30:53.568Z,308.33
2018-03-06T18:33:19.659Z,291.43
2018-03-06T18:35:45.756Z,303.83
2018-03-06T18:38:11.896Z,275.10
2018-03-06T18:40:38.954Z,270.53
2018-03-06T18:43:05.208Z,248.87
2018-03-06T18:45:31.347Z,239.93
2018-03-06T18:47:57.458Z,271.30
2018-03-06T18:50:35.972Z,267.60
2018-03-06T18:53:05.550Z,249.80
2018-03-06T18:55:32.418Z,261.30
2018-03-06T18:57:58.572Z,235.33
2018-03-06T19:03:31.556Z,233.43
2018-03-06T19:06:10.878Z,221.40
2018-03-06T19:08:37.222Z,223.03
2018-03-06T19:11:03.413Z,234.40
2018-03-06T19:13:29.567Z,205.03
2018-03-06T19:15:55.697Z,189.93
2018-03-06T19:18:21.855Z,205.07
2018-03-06T19:20:47.954Z,204.20
2018-03-06T19:23:14.060Z,192.73
2018-03-06T19:25:40.169Z,187.90
2018-03-06T19:28:06.345Z,192.23
2018-03-06T19:30:32.571Z,196.13
2018-03-06T19:32:58.751Z,182.13
2018-03-06T19:35:24.861Z,188.20
2018-03-06T19:37:51.078Z,192.40
2018-03-06T19:40:17.920Z,179.87
2018-03-06T19:42:44.013Z,175.27
2018-03-06T19:45:10.129Z,157.77
2018-03-06T19:47:36.263Z,177.87
2018-03-06T19:50:02.785Z,161.27
2018-03-06T19:52:29.043Z,177.70
2018-03-06T19:54:55.244Z,162.93
2018-03-06T19:57:21.446Z,166.67
2018-03-06T19:59:49.423Z,153.73
2018-03-06T20:02:15.574Z,161.20
2018-03-06T20:04:41.887Z,166.73
2018-03-06T20:07:08.009Z,158.83
2018-03-06T20:09:34.144Z,140.60
2018-03-06T20:12:01.699Z,139.43
2018-03-06T20:14:34.398Z,143.10
2018-03-06T20:17:01.103Z,132.60
2018-03-06T20:19:44.424Z,127.90
2018-03-06T20:22:11.097Z,138.23
2018-03-06T20:24:44.794Z,141.47
2018-03-06T20:27:11.924Z,122.87
2018-03-06T20:29:38.343Z,124.67
2018-03-06T20:32:11.347Z,121.63
2018-03-06T20:34:39.596Z,127.47
2018-03-06T20:37:07.481Z,133.27
2018-03-06T20:39:41.827Z,138.87
2018-03-06T20:42:09.827Z,154.17
2018-03-06T20:44:37.800Z,148.90
2018-03-06T20:47:12.028Z,139.67
2018-03-06T20:49:39.967Z,144.03
2018-03-06T20:52:07.865Z,121.43
2018-03-06T20:54:41.784Z,107.47
2018-03-06T20:57:09.624Z,134.27
2018-03-06T20:59:37.473Z,122.90
2018-03-06T21:02:05.659Z,128.70
2018-03-06T21:04:33.583Z,124.37
2018-03-06T21:07:06.483Z,143.53
2018-03-06T21:09:34.380Z,135.80
2018-03-06T21:12:02.309Z,125.07
2018-03-06T21:14:31.502Z,118.93
2018-03-06T21:16:59.367Z,112.80
2018-03-06T21:19:27.295Z,131.73
2018-03-06T21:21:55.289Z,128.97
2018-03-06T21:24:23.572Z,114.70
2018-03-06T21:26:51.442Z,126.20
2018-03-06T21:29:19.309Z,120.97
2018-03-06T21:31:47.193Z,111.77
2018-03-06T21:34:15.039Z,109.17
2018-03-06T21:36:42.908Z,113.60
2018-03-06T21:39:10.758Z,114.33
2018-03-06T21:41:38.624Z,115.40
2018-03-06T21:44:06.715Z,121.77
2018-03-06T21:46:34.903Z,114.97
2018-03-06T21:49:03.052Z,113.60
2018-03-06T21:51:31.037Z,133.27
2018-03-06T21:53:58.979Z,117.87
2018-03-06T21:56:27.025Z,113.80
2018-03-06T21:58:59.301Z,110.23
2018-03-06T22:01:27.346Z,111.87
2018-03-06T22:03:55.351Z,109.13
2018-03-06T22:06:23.362Z,118.30
2018-03-06T22:08:51.300Z,109.77
2018-03-06T22:11:19.177Z,111.40
2018-03-06T22:13:47.137Z,109.70
2018-03-06T22:16:15.043Z,108.43
2018-03-06T22:18:42.950Z,112.57
2018-03-06T22:21:10.839Z,108.73
2018-03-06T22:23:38.717Z,109.33
2018-03-06T22:26:06.674Z,105.90
2018-03-06T22:28:34.568Z,106.07
2018-03-06T22:31:02.532Z,110.70
2018-03-06T22:33:30.385Z,104.27
2018-03-06T22:35:59.103Z,97.63
2018-03-06T22:38:27.022Z,104.53
2018-03-06T22:40:54.843Z,115.03
2018-03-06T22:43:22.739Z,103.33
2018-03-06T22:45:50.575Z,108.53
2018-03-06T22:48:18.472Z,100.67
2018-03-06T22:50:46.318Z,96.23
2018-03-06T22:53:14.177Z,108.47
2018-03-06T22:55:42.068Z,109.80
2018-03-06T22:58:09.949Z,102.70
2018-03-06T23:00:37.956Z,105.03
2018-03-06T23:03:05.897Z,118.13
2018-03-06T23:05:33.783Z,111.23
2018-03-06T23:08:01.686Z,93.60
2018-03-06T23:10:29.679Z,92.13
2018-03-06T23:12:57.523Z,94.37
2018-03-06T23:15:25.452Z,90.60
2018-03-06T23:17:53.370Z,92.17
2018-03-06T23:20:21.249Z,87.57
2018-03-06T23:22:49.248Z,86.50
2018-03-06T23:25:17.100Z,85.23
2018-03-06T23:27:44.949Z,83.77
2018-03-06T23:30:12.837Z,84.47
2018-03-06T23:32:40.698Z,76.67
2018-03-06T23:35:08.713Z,81.37
2018-03-06T23:37:36.632Z,82.40
2018-03-06T23:40:04.510Z,87.13
2018-03-06T23:42:32.408Z,86.20
2018-03-06T23:45:00.340Z,85.77
2018-03-06T23:47:28.320Z,78.37
2018-03-06T23:49:56.184Z,84.90
2018-03-06T23:52:24.050Z,92.47
2018-03-06T23:54:52.094Z,89.13
2018-03-06T23:57:19.945Z,81.17
2018-03-06T23:59:47.830Z,84.90
